Аэропорт: Павлодар. Павлодар

ICAO: UASP

METAR:
2021-04-21 20:00:00
UASP 212000Z 01006MPS 9999 BKN046 M02/M07 Q1031 R03/0///70 NOSIG RMK QFE762/1017
METAR:
2021-04-21 17:00:00
TAF UASP 211700Z 2118/2203 36005G13MPS 9999 BKN011 TEMPO 2118/2123 5000 FU SCT011